sensor_id;sensor_type;location;lat;lon;timestamp;pressure;altitude;pressure_sealevel;temperature;humidity
7660;BME280;3872;47.902;8.162;2023-04-28T00:02:09;91778.06;;;13.03;99.75
7660;BME280;3872;47.902;8.162;2023-04-28T00:04:35;91784.25;;;12.81;99.80
7660;BME280;3872;47.902;8.162;2023-04-28T00:07:02;91777.75;;;12.87;100.00
7660;BME280;3872;47.902;8.162;2023-04-28T00:09:28;91778.25;;;13.32;96.85
7660;BME280;3872;47.902;8.162;2023-04-28T00:11:56;91779.50;;;13.26;95.16
7660;BME280;3872;47.902;8.162;2023-04-28T00:14:24;91775.31;;;13.43;93.95
7660;BME280;3872;47.902;8.162;2023-04-28T00:16:50;91773.59;;;13.38;94.58
7660;BME280;3872;47.902;8.162;2023-04-28T00:19:17;91777.63;;;13.27;96.24
7660;BME280;3872;47.902;8.162;2023-04-28T00:21:43;91769.84;;;13.30;95.35
7660;BME280;3872;47.902;8.162;2023-04-28T00:24:10;91756.34;;;13.32;94.99
7660;BME280;3872;47.902;8.162;2023-04-28T00:26:36;91749.47;;;13.48;93.91
7660;BME280;3872;47.902;8.162;2023-04-28T00:29:04;91754.00;;;13.39;94.32
7660;BME280;3872;47.902;8.162;2023-04-28T00:31:31;91754.94;;;13.00;99.86
7660;BME280;3872;47.902;8.162;2023-04-28T00:33:57;91754.03;;;13.13;99.64
7660;BME280;3872;47.902;8.162;2023-04-28T00:36:24;91749.66;;;13.00;100.00
7660;BME280;3872;47.902;8.162;2023-04-28T00:38:51;91741.38;;;13.36;98.65
7660;BME280;3872;47.902;8.162;2023-04-28T00:41:17;91740.63;;;13.10;98.36
7660;BME280;3872;47.902;8.162;2023-04-28T00:43:45;91733.94;;;13.38;96.93
7660;BME280;3872;47.902;8.162;2023-04-28T00:46:21;91737.81;;;13.41;97.40
7660;BME280;3872;47.902;8.162;2023-04-28T00:48:48;91736.56;;;13.47;96.56
7660;BME280;3872;47.902;8.162;2023-04-28T00:51:15;91727.41;;;13.01;100.00
7660;BME280;3872;47.902;8.162;2023-04-28T00:53:42;91733.31;;;12.98;100.00
7660;BME280;3872;47.902;8.162;2023-04-28T00:56:09;91727.38;;;13.44;98.49
7660;BME280;3872;47.902;8.162;2023-04-28T00:58:36;91725.69;;;13.57;96.55
7660;BME280;3872;47.902;8.162;2023-04-28T01:01:03;91719.50;;;13.36;96.72
7660;BME280;3872;47.902;8.162;2023-04-28T01:03:32;91730.19;;;13.48;97.09
7660;BME280;3872;47.902;8.162;2023-04-28T01:06:00;91726.13;;;13.59;95.53
7660;BME280;3872;47.902;8.162;2023-04-28T01:08:29;91719.44;;;13.61;94.61
7660;BME280;3872;47.902;8.162;2023-04-28T01:10:56;91711.50;;;13.61;93.65
7660;BME280;3872;47.902;8.162;2023-04-28T01:13:45;91715.09;;;13.57;99.41
7660;BME280;3872;47.902;8.162;2023-04-28T01:16:12;91713.97;;;13.58;98.56
7660;BME280;3872;47.902;8.162;2023-04-28T01:18:42;91712.75;;;13.55;98.68
7660;BME280;3872;47.902;8.162;2023-04-28T01:21:10;91720.06;;;13.58;100.00
7660;BME280;3872;47.902;8.162;2023-04-28T01:23:37;91716.06;;;12.75;100.00
7660;BME280;3872;47.902;8.162;2023-04-28T01:26:05;91713.91;;;13.11;100.00
7660;BME280;3872;47.902;8.162;2023-04-28T01:28:32;91723.06;;;12.62;100.00
7660;BME280;3872;47.902;8.162;2023-04-28T01:30:58;91723.22;;;12.91;100.00
7660;BME280;3872;47.902;8.162;2023-04-28T01:33:25;91725.75;;;13.14;100.00
7660;BME280;3872;47.902;8.162;2023-04-28T01:35:56;91733.81;;;13.26;100.00
7660;BME280;3872;47.902;8.162;2023-04-28T01:38:22;91731.63;;;13.19;100.00
7660;BME280;3872;47.902;8.162;2023-04-28T01:40:49;91733.63;;;13.40;100.00
7660;BME280;3872;47.902;8.162;2023-04-28T01:43:18;91736.09;;;12.93;100.00
7660;BME280;3872;47.902;8.162;2023-04-28T01:45:44;91737.53;;;13.16;100.00
7660;BME280;3872;47.902;8.162;2023-04-28T01:48:11;91727.56;;;13.05;100.00
7660;BME280;3872;47.902;8.162;2023-04-28T01:50:37;91723.38;;;13.04;100.00
7660;BME280;3872;47.902;8.162;2023-04-28T01:53:04;91727.75;;;13.17;100.00
7660;BME280;3872;47.902;8.162;2023-04-28T01:55:31;91727.69;;;13.51;100.00
7660;BME280;3872;47.902;8.162;2023-04-28T01:57:58;91731.63;;;12.85;100.00
7660;BME280;3872;47.902;8.162;2023-04-28T02:00:26;91722.28;;;12.96;100.00
7660;BME280;3872;47.902;8.162;2023-04-28T02:02:53;91731.59;;;13.11;100.00
7660;BME280;3872;47.902;8.162;2023-04-28T02:05:19;91737.69;;;13.28;100.00
7660;BME280;3872;47.902;8.162;2023-04-28T02:07:48;91734.41;;;13.06;100.00
7660;BME280;3872;47.902;8.162;2023-04-28T02:10:15;91732.53;;;12.89;100.00
7660;BME280;3872;47.902;8.162;2023-04-28T02:12:41;91738.56;;;12.55;100.00
7660;BME280;3872;47.902;8.162;2023-04-28T02:15:09;91729.13;;;12.97;100.00
7660;BME280;3872;47.902;8.162;2023-04-28T02:17:36;91738.91;;;12.79;100.00
7660;BME280;3872;47.902;8.162;2023-04-28T02:20:04;91741.06;;;11.72;100.00
7660;BME280;3872;47.902;8.162;2023-04-28T02:22:31;91733.63;;;12.79;100.00
7660;BME280;3872;47.902;8.162;2023-04-28T02:24:57;91731.13;;;12.66;100.00
7660;BME280;3872;47.902;8.162;2023-04-28T02:27:24;91739.56;;;13.19;100.00
7660;BME280;3872;47.902;8.162;2023-04-28T02:29:51;91734.09;;;12.81;100.00
7660;BME280;3872;47.902;8.162;2023-04-28T02:32:17;91721.97;;;12.89;100.00
7660;BME280;3872;47.902;8.162;2023-04-28T02:34:45;91726.78;;;13.39;100.00
7660;BME280;3872;47.902;8.162;2023-04-28T02:37:13;91715.75;;;13.11;100.00
7660;BME280;3872;47.902;8.162;2023-04-28T02:39:39;91712.19;;;12.98;100.00
7660;BME280;3872;47.902;8.162;2023-04-28T02:42:06;91720.94;;;12.07;100.00
7660;BME280;3872;47.902;8.162;2023-04-28T02:44:32;91719.69;;;11.43;100.00
7660;BME280;3872;47.902;8.162;2023-04-28T02:46:59;91713.88;;;12.42;100.00
7660;BME280;3872;47.902;8.162;2023-04-28T02:49:26;91715.44;;;12.86;100.00
7660;BME280;3872;47.902;8.162;2023-04-28T02:51:56;91716.25;;;13.13;100.00
7660;BME280;3872;47.902;8.162;2023-04-28T02:54:22;91699.94;;;13.19;100.00
7660;BME280;3872;47.902;8.162;2023-04-28T02:56:53;91687.81;;;13.18;100.00
7660;BME280;3872;47.902;8.162;2023-04-28T02:59:20;91689.38;;;11.54;100.00
7660;BME280;3872;47.902;8.162;2023-04-28T03:01:47;91693.31;;;11.34;100.00
7660;BME280;3872;47.902;8.162;2023-04-28T03:04:13;91695.41;;;11.86;100.00
7660;BME280;3872;47.902;8.162;2023-04-28T03:06:40;91688.09;;;13.08;100.00
7660;BME280;3872;47.902;8.162;2023-04-28T03:09:09;91677.56;;;13.00;100.00
7660;BME280;3872;47.902;8.162;2023-04-28T03:11:37;91680.06;;;13.13;100.00
7660;BME280;3872;47.902;8.162;2023-04-28T03:14:03;91687.03;;;12.92;100.00
7660;BME280;3872;47.902;8.162;2023-04-28T03:16:30;91688.44;;;13.07;100.00
7660;BME280;3872;47.902;8.162;2023-04-28T03:18:57;91690.81;;;13.63;100.00
7660;BME280;3872;47.902;8.162;2023-04-28T03:21:24;91679.22;;;13.39;100.00
7660;BME280;3872;47.902;8.162;2023-04-28T03:23:52;91684.94;;;13.49;100.00
7660;BME280;3872;47.902;8.162;2023-04-28T03:26:20;91684.06;;;13.11;100.00
7660;BME280;3872;47.902;8.162;2023-04-28T03:28:47;91680.00;;;13.39;100.00
7660;BME280;3872;47.902;8.162;2023-04-28T03:31:14;91680.16;;;13.34;100.00
7660;BME280;3872;47.902;8.162;2023-04-28T03:33:40;91678.31;;;13.72;100.00
7660;BME280;3872;47.902;8.162;2023-04-28T03:36:10;91674.31;;;13.58;100.00
7660;BME280;3872;47.902;8.162;2023-04-28T03:38:36;91679.63;;;13.58;100.00
7660;BME280;3872;47.902;8.162;2023-04-28T03:41:03;91679.88;;;13.73;100.00
7660;BME280;3872;47.902;8.162;2023-04-28T03:43:31;91675.25;;;13.62;100.00
7660;BME280;3872;47.902;8.162;2023-04-28T03:46:19;91670.03;;;13.45;100.00
7660;BME280;3872;47.902;8.162;2023-04-28T03:48:45;91672.03;;;13.48;100.00
7660;BME280;3872;47.902;8.162;2023-04-28T03:51:12;91663.25;;;13.64;100.00
7660;BME280;3872;47.902;8.162;2023-04-28T03:53:41;91665.03;;;13.43;100.00
7660;BME280;3872;47.902;8.162;2023-04-28T03:56:07;91655.50;;;12.70;100.00
7660;BME280;3872;47.902;8.162;2023-04-28T03:58:35;91664.16;;;12.19;100.00
7660;BME280;3872;47.902;8.162;2023-04-28T04:01:02;91665.44;;;12.47;100.00
7660;BME280;3872;47.902;8.162;2023-04-28T04:03:29;91661.94;;;13.50;100.00
7660;BME280;3872;47.902;8.162;2023-04-28T04:05:57;91655.72;;;13.37;100.00
7660;BME280;3872;47.902;8.162;2023-04-28T04:08:24;91648.16;;;13.27;100.00
7660;BME280;3872;47.902;8.162;2023-04-28T04:10:51;91651.44;;;12.29;100.00
7660;BME280;3872;47.902;8.162;2023-04-28T04:13:19;91659.81;;;13.09;100.00
7660;BME280;3872;47.902;8.162;2023-04-28T04:15:47;91655.75;;;11.99;100.00
7660;BME280;3872;47.902;8.162;2023-04-28T04:18:15;91636.22;;;12.86;100.00
7660;BME280;3872;47.902;8.162;2023-04-28T04:21:06;91641.19;;;13.60;100.00
7660;BME280;3872;47.902;8.162;2023-04-28T04:23:33;91636.63;;;13.31;100.00
7660;BME280;3872;47.902;8.162;2023-04-28T04:25:59;91628.75;;;13.61;100.00
7660;BME280;3872;47.902;8.162;2023-04-28T04:28:26;91625.38;;;13.90;100.00
7660;BME280;3872;47.902;8.162;2023-04-28T04:30:54;91631.47;;;13.44;100.00
7660;BME280;3872;47.902;8.162;2023-04-28T04:33:21;91628.66;;;14.07;100.00
7660;BME280;3872;47.902;8.162;2023-04-28T04:35:48;91630.59;;;14.28;100.00
7660;BME280;3872;47.902;8.162;2023-04-28T04:38:15;91630.09;;;14.05;100.00
7660;BME280;3872;47.902;8.162;2023-04-28T04:40:41;91629.66;;;14.24;100.00
7660;BME280;3872;47.902;8.162;2023-04-28T04:43:08;91635.69;;;14.33;100.00
7660;BME280;3872;47.902;8.162;2023-04-28T04:45:41;91643.75;;;14.36;100.00
7660;BME280;3872;47.902;8.162;2023-04-28T04:48:10;91650.00;;;14.11;100.00
7660;BME280;3872;47.902;8.162;2023-04-28T04:50:36;91642.59;;;14.25;100.00
7660;BME280;3872;47.902;8.162;2023-04-28T04:53:03;91634.88;;;14.82;100.00
7660;BME280;3872;47.902;8.162;2023-04-28T04:55:31;91634.56;;;14.63;100.00
7660;BME280;3872;47.902;8.162;2023-04-28T04:57:57;91635.59;;;14.92;100.00
7660;BME280;3872;47.902;8.162;2023-04-28T05:00:56;91634.44;;;15.13;100.00
7660;BME280;3872;47.902;8.162;2023-04-28T05:03:25;91647.66;;;14.80;100.00
7660;BME280;3872;47.902;8.162;2023-04-28T05:05:52;91646.94;;;14.71;100.00
7660;BME280;3872;47.902;8.162;2023-04-28T05:08:32;91630.03;;;15.17;100.00
7660;BME280;3872;47.902;8.162;2023-04-28T05:10:58;91630.72;;;14.94;100.00
7660;BME280;3872;47.902;8.162;2023-04-28T05:13:25;91625.47;;;15.06;100.00
7660;BME280;3872;47.902;8.162;2023-04-28T05:15:57;91629.25;;;14.84;100.00
7660;BME280;3872;47.902;8.162;2023-04-28T05:18:40;91642.06;;;15.48;100.00
7660;BME280;3872;47.902;8.162;2023-04-28T05:21:08;91641.22;;;15.56;100.00
7660;BME280;3872;47.902;8.162;2023-04-28T05:23:36;91638.03;;;15.62;100.00
7660;BME280;3872;47.902;8.162;2023-04-28T05:26:03;91634.28;;;15.76;100.00
7660;BME280;3872;47.902;8.162;2023-04-28T05:28:30;91642.00;;;15.81;100.00
7660;BME280;3872;47.902;8.162;2023-04-28T05:30:57;91630.28;;;15.70;100.00
7660;BME280;3872;47.902;8.162;2023-04-28T05:33:24;91632.59;;;15.71;100.00
7660;BME280;3872;47.902;8.162;2023-04-28T05:35:52;91630.06;;;15.99;100.00
7660;BME280;3872;47.902;8.162;2023-04-28T05:38:19;91631.91;;;16.35;100.00
7660;BME280;3872;47.902;8.162;2023-04-28T05:40:46;91628.97;;;16.24;100.00
7660;BME280;3872;47.902;8.162;2023-04-28T05:43:13;91628.50;;;16.47;100.00
7660;BME280;3872;47.902;8.162;2023-04-28T05:45:40;91629.63;;;16.33;100.00
7660;BME280;3872;47.902;8.162;2023-04-28T05:48:07;91632.81;;;16.39;100.00
7660;BME280;3872;47.902;8.162;2023-04-28T05:50:34;91634.78;;;16.54;100.00
7660;BME280;3872;47.902;8.162;2023-04-28T05:53:02;91638.13;;;16.15;100.00
7660;BME280;3872;47.902;8.162;2023-04-28T05:55:29;91637.66;;;15.64;100.00
7660;BME280;3872;47.902;8.162;2023-04-28T05:57:56;91643.44;;;16.39;100.00
7660;BME280;3872;47.902;8.162;2023-04-28T06:00:24;91640.16;;;16.05;100.00
7660;BME280;3872;47.902;8.162;2023-04-28T06:02:53;91643.34;;;16.11;100.00
7660;BME280;3872;47.902;8.162;2023-04-28T06:05:21;91645.88;;;15.83;100.00
7660;BME280;3872;47.902;8.162;2023-04-28T06:07:52;91642.06;;;16.57;100.00
7660;BME280;3872;47.902;8.162;2023-04-28T06:10:22;91631.84;;;16.19;100.00
7660;BME280;3872;47.902;8.162;2023-04-28T06:12:48;91641.00;;;15.61;100.00
7660;BME280;3872;47.902;8.162;2023-04-28T06:15:15;91638.47;;;16.25;100.00
7660;BME280;3872;47.902;8.162;2023-04-28T06:17:42;91644.28;;;16.67;100.00
7660;BME280;3872;47.902;8.162;2023-04-28T06:20:09;91637.75;;;16.65;100.00
7660;BME280;3872;47.902;8.162;2023-04-28T06:22:38;91638.03;;;16.23;100.00
7660;BME280;3872;47.902;8.162;2023-04-28T06:25:06;91644.28;;;16.67;100.00
7660;BME280;3872;47.902;8.162;2023-04-28T06:27:39;91645.22;;;15.86;100.00
7660;BME280;3872;47.902;8.162;2023-04-28T06:30:06;91649.31;;;15.39;100.00
7660;BME280;3872;47.902;8.162;2023-04-28T06:32:33;91643.44;;;15.66;100.00
7660;BME280;3872;47.902;8.162;2023-04-28T06:35:01;91641.22;;;15.92;100.00
7660;BME280;3872;47.902;8.162;2023-04-28T06:37:27;91642.66;;;16.38;100.00
7660;BME280;3872;47.902;8.162;2023-04-28T06:39:54;91642.78;;;15.81;100.00
7660;BME280;3872;47.902;8.162;2023-04-28T06:42:20;91637.88;;;16.44;100.00
7660;BME280;3872;47.902;8.162;2023-04-28T06:44:57;91637.69;;;16.61;100.00
7660;BME280;3872;47.902;8.162;2023-04-28T06:47:26;91646.41;;;16.62;100.00
7660;BME280;3872;47.902;8.162;2023-04-28T06:49:53;91633.25;;;16.41;100.00
7660;BME280;3872;47.902;8.162;2023-04-28T06:52:19;91637.66;;;16.49;100.00
7660;BME280;3872;47.902;8.162;2023-04-28T06:54:46;91633.47;;;16.48;100.00
7660;BME280;3872;47.902;8.162;2023-04-28T06:57:13;91636.34;;;16.43;100.00
7660;BME280;3872;47.902;8.162;2023-04-28T06:59:39;91643.31;;;15.62;100.00
7660;BME280;3872;47.902;8.162;2023-04-28T07:02:09;91645.72;;;14.89;100.00
7660;BME280;3872;47.902;8.162;2023-04-28T07:04:36;91643.69;;;15.97;100.00
7660;BME280;3872;47.902;8.162;2023-04-28T07:07:02;91649.28;;;16.44;100.00
7660;BME280;3872;47.902;8.162;2023-04-28T07:09:32;91654.72;;;16.48;100.00
7660;BME280;3872;47.902;8.162;2023-04-28T07:11:58;91664.66;;;16.75;100.00
7660;BME280;3872;47.902;8.162;2023-04-28T07:14:25;91659.09;;;16.56;100.00
7660;BME280;3872;47.902;8.162;2023-04-28T07:16:52;91677.31;;;16.18;100.00
7660;BME280;3872;47.902;8.162;2023-04-28T07:19:20;91685.03;;;16.35;100.00
7660;BME280;3872;47.902;8.162;2023-04-28T07:21:46;91685.03;;;16.35;100.00
7660;BME280;3872;47.902;8.162;2023-04-28T07:24:13;91677.81;;;16.60;100.00
7660;BME280;3872;47.902;8.162;2023-04-28T07:26:39;91669.53;;;16.49;100.00
7660;BME280;3872;47.902;8.162;2023-04-28T07:29:06;91660.25;;;16.55;100.00
7660;BME280;3872;47.902;8.162;2023-04-28T07:31:34;91662.69;;;16.48;100.00
7660;BME280;3872;47.902;8.162;2023-04-28T07:34:01;91660.91;;;16.40;100.00
7660;BME280;3872;47.902;8.162;2023-04-28T07:36:29;91656.28;;;16.13;100.00
7660;BME280;3872;47.902;8.162;2023-04-28T07:38:56;91655.63;;;16.03;100.00
7660;BME280;3872;47.902;8.162;2023-04-28T07:41:22;91670.03;;;15.57;100.00
7660;BME280;3872;47.902;8.162;2023-04-28T07:43:49;91653.97;;;16.23;100.00
7660;BME280;3872;47.902;8.162;2023-04-28T07:46:15;91669.53;;;16.73;100.00
7660;BME280;3872;47.902;8.162;2023-04-28T07:48:42;91660.16;;;16.15;100.00
7660;BME280;3872;47.902;8.162;2023-04-28T07:51:08;91665.34;;;16.36;100.00
7660;BME280;3872;47.902;8.162;2023-04-28T07:53:36;91672.66;;;17.03;100.00
7660;BME280;3872;47.902;8.162;2023-04-28T07:56:03;91663.88;;;16.75;100.00
7660;BME280;3872;47.902;8.162;2023-04-28T07:58:30;91672.66;;;16.91;100.00
7660;BME280;3872;47.902;8.162;2023-04-28T08:00:56;91670.06;;;17.19;100.00
7660;BME280;3872;47.902;8.162;2023-04-28T08:03:23;91675.97;;;16.24;100.00
7660;BME280;3872;47.902;8.162;2023-04-28T08:05:49;91670.06;;;17.19;100.00
7660;BME280;3872;47.902;8.162;2023-04-28T08:08:16;91683.75;;;16.93;100.00
7660;BME280;3872;47.902;8.162;2023-04-28T08:10:44;91687.53;;;17.20;100.00
7660;BME280;3872;47.902;8.162;2023-04-28T08:13:10;91689.88;;;16.81;100.00
7660;BME280;3872;47.902;8.162;2023-04-28T08:15:37;91679.50;;;16.16;100.00
7660;BME280;3872;47.902;8.162;2023-04-28T08:18:03;91672.63;;;16.75;100.00
7660;BME280;3872;47.902;8.162;2023-04-28T08:20:31;91676.56;;;16.94;100.00
7660;BME280;3872;47.902;8.162;2023-04-28T08:22:57;91677.97;;;17.03;100.00
7660;BME280;3872;47.902;8.162;2023-04-28T08:25:24;91681.78;;;17.46;100.00
7660;BME280;3872;47.902;8.162;2023-04-28T08:27:52;91680.63;;;17.03;100.00
7660;BME280;3872;47.902;8.162;2023-04-28T08:30:20;91674.44;;;16.11;100.00
7660;BME280;3872;47.902;8.162;2023-04-28T08:32:47;91677.38;;;15.85;100.00
7660;BME280;3872;47.902;8.162;2023-04-28T08:35:13;91670.38;;;17.17;100.00
7660;BME280;3872;47.902;8.162;2023-04-28T08:37:40;91677.44;;;16.86;100.00
7660;BME280;3872;47.902;8.162;2023-04-28T08:40:08;91679.56;;;15.71;100.00
7660;BME280;3872;47.902;8.162;2023-04-28T08:42:35;91667.78;;;17.33;100.00
7660;BME280;3872;47.902;8.162;2023-04-28T08:45:04;91672.16;;;17.13;100.00
7660;BME280;3872;47.902;8.162;2023-04-28T08:47:33;91672.84;;;17.38;100.00
7660;BME280;3872;47.902;8.162;2023-04-28T08:50:05;91689.63;;;16.87;100.00
7660;BME280;3872;47.902;8.162;2023-04-28T08:52:32;91697.69;;;17.02;100.00
7660;BME280;3872;47.902;8.162;2023-04-28T08:55:00;91696.25;;;17.60;100.00
7660;BME280;3872;47.902;8.162;2023-04-28T08:57:31;91701.78;;;17.68;100.00
7660;BME280;3872;47.902;8.162;2023-04-28T09:00:00;91720.09;;;16.53;100.00
7660;BME280;3872;47.902;8.162;2023-04-28T09:02:28;91744.31;;;16.15;100.00
7660;BME280;3872;47.902;8.162;2023-04-28T09:04:55;91743.53;;;15.57;100.00
7660;BME280;3872;47.902;8.162;2023-04-28T09:07:22;91754.84;;;15.45;100.00
7660;BME280;3872;47.902;8.162;2023-04-28T09:09:48;91738.78;;;15.95;100.00
7660;BME280;3872;47.902;8.162;2023-04-28T09:12:16;91741.97;;;17.10;100.00
7660;BME280;3872;47.902;8.162;2023-04-28T09:14:43;91745.59;;;16.66;100.00
7660;BME280;3872;47.902;8.162;2023-04-28T09:17:11;91739.25;;;16.95;100.00
7660;BME280;3872;47.902;8.162;2023-04-28T09:19:40;91729.88;;;17.13;100.00
7660;BME280;3872;47.902;8.162;2023-04-28T09:22:07;91735.50;;;16.83;100.00
7660;BME280;3872;47.902;8.162;2023-04-28T09:24:35;91729.84;;;16.97;100.00
7660;BME280;3872;47.902;8.162;2023-04-28T09:27:04;91735.19;;;16.61;100.00
7660;BME280;3872;47.902;8.162;2023-04-28T09:29:32;91731.69;;;17.09;100.00
7660;BME280;3872;47.902;8.162;2023-04-28T09:32:17;91718.69;;;17.47;100.00
7660;BME280;3872;47.902;8.162;2023-04-28T09:34:47;91719.44;;;17.20;100.00
7660;BME280;3872;47.902;8.162;2023-04-28T09:37:14;91733.25;;;16.49;100.00
7660;BME280;3872;47.902;8.162;2023-04-28T09:39:43;91726.97;;;17.58;100.00
7660;BME280;3872;47.902;8.162;2023-04-28T09:42:10;91725.72;;;17.68;100.00
7660;BME280;3872;47.902;8.162;2023-04-28T09:44:36;91732.88;;;17.79;100.00
7660;BME280;3872;47.902;8.162;2023-04-28T09:47:18;91735.09;;;17.77;100.00
7660;BME280;3872;47.902;8.162;2023-04-28T09:49:54;91741.44;;;16.93;100.00
7660;BME280;3872;47.902;8.162;2023-04-28T09:52:21;91735.53;;;17.51;100.00
7660;BME280;3872;47.902;8.162;2023-04-28T09:54:49;91733.94;;;16.82;100.00
7660;BME280;3872;47.902;8.162;2023-04-28T09:57:17;91738.13;;;16.35;100.00
7660;BME280;3872;47.902;8.162;2023-04-28T09:59:46;91730.31;;;17.98;100.00
7660;BME280;3872;47.902;8.162;2023-04-28T10:02:14;91735.69;;;18.46;100.00
7660;BME280;3872;47.902;8.162;2023-04-28T10:04:41;91728.63;;;17.63;100.00
7660;BME280;3872;47.902;8.162;2023-04-28T10:07:11;91738.47;;;16.21;100.00
7660;BME280;3872;47.902;8.162;2023-04-28T10:09:38;91740.00;;;16.95;100.00
7660;BME280;3872;47.902;8.162;2023-04-28T10:12:08;91725.66;;;17.24;100.00
7660;BME280;3872;47.902;8.162;2023-04-28T10:14:35;91728.06;;;16.77;100.00
7660;BME280;3872;47.902;8.162;2023-04-28T10:17:03;91731.44;;;17.14;100.00
7660;BME280;3872;47.902;8.162;2023-04-28T10:19:30;91743.31;;;17.04;100.00
7660;BME280;3872;47.902;8.162;2023-04-28T10:22:05;91729.84;;;17.65;100.00
7660;BME280;3872;47.902;8.162;2023-04-28T10:24:49;91733.50;;;18.20;100.00
7660;BME280;3872;47.902;8.162;2023-04-28T10:27:19;91730.38;;;17.03;100.00
7660;BME280;3872;47.902;8.162;2023-04-28T10:29:46;91741.16;;;17.62;100.00
7660;BME280;3872;47.902;8.162;2023-04-28T10:32:18;91744.50;;;18.03;100.00
7660;BME280;3872;47.902;8.162;2023-04-28T10:34:45;91750.31;;;17.37;100.00
7660;BME280;3872;47.902;8.162;2023-04-28T10:37:13;91749.75;;;17.43;100.00
7660;BME280;3872;47.902;8.162;2023-04-28T10:42:54;91745.34;;;16.47;100.00
7660;BME280;3872;47.902;8.162;2023-04-28T10:48:51;91745.59;;;16.66;100.00
7660;BME280;3872;47.902;8.162;2023-04-28T10:51:37;91742.84;;;17.14;100.00
7660;BME280;3872;47.902;8.162;2023-04-28T10:54:13;91736.13;;;18.32;100.00
7660;BME280;3872;47.902;8.162;2023-04-28T10:57:19;91737.19;;;17.99;100.00
7660;BME280;3872;47.902;8.162;2023-04-28T11:00:25;91738.75;;;17.45;100.00
7660;BME280;3872;47.902;8.162;2023-04-28T11:02:52;91741.13;;;17.34;100.00
7660;BME280;3872;47.902;8.162;2023-04-28T11:05:19;91748.00;;;16.83;100.00
7660;BME280;3872;47.902;8.162;2023-04-28T11:11:12;91733.31;;;18.91;100.00
7660;BME280;3872;47.902;8.162;2023-04-28T11:13:40;91722.63;;;19.26;100.00
7660;BME280;3872;47.902;8.162;2023-04-28T11:16:08;91730.84;;;19.75;100.00
7660;BME280;3872;47.902;8.162;2023-04-28T11:18:48;91734.97;;;18.49;100.00
7660;BME280;3872;47.902;8.162;2023-04-28T11:21:15;91728.75;;;19.46;100.00
7660;BME280;3872;47.902;8.162;2023-04-28T11:23:42;91736.22;;;18.67;100.00
7660;BME280;3872;47.902;8.162;2023-04-28T11:26:09;91736.03;;;18.75;100.00
7660;BME280;3872;47.902;8.162;2023-04-28T11:28:35;91732.03;;;17.91;100.00
7660;BME280;3872;47.902;8.162;2023-04-28T11:31:13;91729.75;;;18.68;100.00
7660;BME280;3872;47.902;8.162;2023-04-28T11:33:44;91725.44;;;18.48;100.00
7660;BME280;3872;47.902;8.162;2023-04-28T11:36:28;91723.63;;;19.76;100.00
7660;BME280;3872;47.902;8.162;2023-04-28T11:38:56;91720.53;;;19.35;100.00
7660;BME280;3872;47.902;8.162;2023-04-28T11:41:23;91724.22;;;19.46;100.00
7660;BME280;3872;47.902;8.162;2023-04-28T11:43:50;91719.13;;;19.22;100.00
7660;BME280;3872;47.902;8.162;2023-04-28T11:46:19;91716.44;;;19.99;100.00
7660;BME280;3872;47.902;8.162;2023-04-28T11:48:46;91704.44;;;20.12;100.00
7660;BME280;3872;47.902;8.162;2023-04-28T11:51:29;91717.94;;;19.77;100.00
7660;BME280;3872;47.902;8.162;2023-04-28T11:53:56;91720.19;;;19.75;100.00
7660;BME280;3872;47.902;8.162;2023-04-28T11:56:22;91714.75;;;18.79;100.00
7660;BME280;3872;47.902;8.162;2023-04-28T11:58:59;91715.59;;;18.83;100.00
7660;BME280;3872;47.902;8.162;2023-04-28T12:01:27;91714.88;;;18.67;100.00
7660;BME280;3872;47.902;8.162;2023-04-28T12:03:54;91714.13;;;19.40;100.00
7660;BME280;3872;47.902;8.162;2023-04-28T12:06:21;91701.63;;;20.24;100.00
7660;BME280;3872;47.902;8.162;2023-04-28T12:08:47;91704.66;;;19.42;100.00
7660;BME280;3872;47.902;8.162;2023-04-28T12:11:14;91698.25;;;20.77;94.59
7660;BME280;3872;47.902;8.162;2023-04-28T12:13:42;91701.22;;;20.26;92.95
7660;BME280;3872;47.902;8.162;2023-04-28T12:16:10;91703.13;;;21.24;84.57
7660;BME280;3872;47.902;8.162;2023-04-28T12:18:57;91696.97;;;19.57;100.00
7660;BME280;3872;47.902;8.162;2023-04-28T12:21:24;91699.31;;;20.46;93.63
7660;BME280;3872;47.902;8.162;2023-04-28T12:23:51;91703.63;;;19.47;100.00
7660;BME280;3872;47.902;8.162;2023-04-28T12:26:23;91702.63;;;19.16;100.00
7660;BME280;3872;47.902;8.162;2023-04-28T12:28:50;91706.88;;;19.02;100.00
7660;BME280;3872;47.902;8.162;2023-04-28T12:31:17;91709.22;;;19.03;100.00
7660;BME280;3872;47.902;8.162;2023-04-28T12:33:44;91703.63;;;19.47;94.17
7660;BME280;3872;47.902;8.162;2023-04-28T12:36:11;91695.75;;;19.73;99.30
7660;BME280;3872;47.902;8.162;2023-04-28T12:38:46;91708.84;;;19.59;100.00
7660;BME280;3872;47.902;8.162;2023-04-28T12:41:13;91708.69;;;20.36;87.96
7660;BME280;3872;47.902;8.162;2023-04-28T12:43:39;91712.16;;;19.75;95.95
7660;BME280;3872;47.902;8.162;2023-04-28T12:46:08;91705.59;;;20.57;85.88
7660;BME280;3872;47.902;8.162;2023-04-28T12:48:38;91714.34;;;20.80;95.59
7660;BME280;3872;47.902;8.162;2023-04-28T12:51:06;91721.16;;;20.51;90.98
7660;BME280;3872;47.902;8.162;2023-04-28T12:53:33;91714.59;;;22.24;75.48
7660;BME280;3872;47.902;8.162;2023-04-28T12:55:59;91705.81;;;22.72;73.73
7660;BME280;3872;47.902;8.162;2023-04-28T12:58:26;91713.53;;;20.53;89.50
7660;BME280;3872;47.902;8.162;2023-04-28T13:00:52;91703.28;;;22.01;74.03
7660;BME280;3872;47.902;8.162;2023-04-28T13:03:19;91705.66;;;20.87;83.00
7660;BME280;3872;47.902;8.162;2023-04-28T13:05:46;91704.91;;;19.53;91.75
7660;BME280;3872;47.902;8.162;2023-04-28T13:08:14;91697.72;;;21.50;75.36
7660;BME280;3872;47.902;8.162;2023-04-28T13:10:40;91701.75;;;18.93;94.64
7660;BME280;3872;47.902;8.162;2023-04-28T13:13:07;91687.13;;;21.61;75.40
7660;BME280;3872;47.902;8.162;2023-04-28T13:15:33;91689.78;;;20.25;87.46
7660;BME280;3872;47.902;8.162;2023-04-28T13:18:01;91681.41;;;19.81;88.59
7660;BME280;3872;47.902;8.162;2023-04-28T13:20:28;91671.28;;;21.82;72.14
7660;BME280;3872;47.902;8.162;2023-04-28T13:22:55;91663.53;;;22.07;73.80
7660;BME280;3872;47.902;8.162;2023-04-28T13:25:23;91680.34;;;20.81;81.20
7660;BME280;3872;47.902;8.162;2023-04-28T13:27:49;91676.28;;;20.38;83.47
7660;BME280;3872;47.902;8.162;2023-04-28T13:30:16;91677.94;;;18.85;96.67